Aviation Digital Data Service (ADDS)

Output produced by METARs form (1932 UTC 18 June 2019)
found at http://www.aviationweather.gov/metar/data/
 
KADG 181853Z AUTO VRB04KT 10SM FEW039 24/16 A2994 RMK AO2 SLP136 T02440156 TSNO
KAMN 181920Z AUTO 00000KT 10SM OVC049 25/12 A2993 RMK AO2 T02500121
KAPN 181854Z 12012KT 10SM FEW060 22/07 A2991 RMK AO2 SLP130 T02220067
KAPN 181753Z 1818/1918 12005KT P6SM FEW050 SCT100 
     FM181900 12005KT P6SM SCT050 BKN100 
     FM182300 VRB04KT P6SM VCSH SCT050 BKN100 
     FM190500 00000KT P6SM VCSH BKN070 
     FM190600 00000KT 6SM BR BKN050 
     FM190900 00000KT 6SM BR OVC040 
     FM191100 00000KT 6SM BR BKN029 
     FM191500 VRB03KT P6SM OVC025
       
KARB 181853Z 19004KT 9SM FEW049 BKN065 24/17 A2993 RMK AO2 SLP133 T02390167
KBAX 181919Z AUTO 27004KT 10SM CLR 25/11 A2992 RMK AO2 T02450107
KBTL 181853Z 36003KT 10SM SCT045 OVC060 26/17 A2994 RMK AO2 SLP132 T02610172
KBTL 181740Z 1818/1918 19004KT P6SM BKN035 
     FM182100 28005KT P6SM BKN035 
     FM190600 00000KT 5SM BR SCT080 
     FM190900 00000KT 2SM BR BKN025 
     FM191400 00000KT 5SM BR BKN250
       
KACB 181919Z AUTO 23005KT 10SM SCT100 24/06 A2992 RMK AO2 T02390063
KBEH 181853Z AUTO VRB05KT 10SM CLR 22/17 A2994 RMK AO2 SLP137 T02170167
KRQB 181916Z AUTO 26004KT 10SM BKN044 OVC110 24/15 A2993 RMK AO2 T02440148
KCAD 181918Z AUTO 28007KT 10SM SCT037 OVC090 25/14 A2993 RMK AO2 T02480145
KCFS 181916Z AUTO 00000KT 10SM BKN060 24/15 A2992 RMK AO2 T02370151
KCVX 181918Z AUTO 31006KT 10SM BKN100 18/10 A2995 RMK AO2 T01820098
KFPK 181915Z AUTO 00000KT 3SM HZ BKN040 OVC055 24/16 A2993 RMK AO2 T02350157
KSLH 181917Z AUTO 04006KT 10SM BKN100 19/13 A2990 RMK AO2 T01880126
KOEB 181920Z AUTO 00000KT 10SM CLR 24/16 A2993 RMK AO2 T02430160
KDET 181853Z 12007KT 10SM FEW060 24/15 A2993 RMK AO2 SLP133 T02390150
KDET 181733Z 1818/1918 06004KT P6SM BKN040 
     FM182000 14006KT P6SM SCT050 
     FM190600 VRB03KT P6SM BKN120 
     FM191400 23004KT P6SM SCT050 BKN120
       
KDTW 181853Z 16006KT 10SM FEW035 BKN060 25/15 A2993 RMK AO2 SLP133 T02500150
KDTW 181733Z 1818/1924 06004KT P6SM BKN040 
     FM182000 14006KT P6SM SCT050 
     FM190600 VRB03KT P6SM BKN120 
     FM191400 23004KT P6SM SCT050 BKN120 
     FM192100 08005KT P6SM BKN050 OVC120
       
KONZ 181915Z AUTO 19006KT 10SM CLR 22/18 A2993 RMK AO2 T02170176
KYIP 181853Z 21006KT 10SM BKN036 BKN048 26/16 A2994 RMK AO2 SLP132 T02560161
KYIP 181733Z 1818/1918 06004KT P6SM BKN040 
     FM182000 14006KT P6SM SCT050 
     FM190600 VRB03KT P6SM BKN120 
     FM191400 23004KT P6SM SCT050 BKN120
       
KDRM 181916Z AUTO 16007KT 10SM CLR 20/08 A2992 RMK AO2 T02040075
KESC 181856Z AUTO 17011KT 10SM FEW110 19/13 A2988 RMK AO2 SLP124 T01890133
KFNT 181853Z AUTO 00000KT 10SM FEW060 24/14 A2993 RMK AO2 SLP131 T02440139
KFNT 181733Z 1818/1918 VRB03KT P6SM BKN045 
     FM182200 18005KT P6SM SCT050 
     FM190300 VRB03KT P6SM BKN120 
     FM191100 23004KT P6SM BKN050 BKN120 
     FM191500 27004KT P6SM BKN030 OVC080
       
KFKS 181916Z AUTO 23007KT 10SM BKN080 OVC100 19/13 A2993 RMK AO2 T01850133
KFFX 181920Z AUTO 23005KT 10SM SCT036 SCT042 SCT100 25/14 A2992 RMK AO2 T02490135
KGLR 181853Z AUTO VRB05KT 10SM FEW042 BKN100 23/11 A2992 RMK AO2 SLP130 T02280111
KGRR 181853Z 09003KT 10SM SCT041 BKN050 BKN250 24/15 A2993 RMK AO2 SLP133 T02390150
KGRR 181740Z 1818/1918 20005KT P6SM BKN035 
     FM182100 24005KT P6SM BKN035 
     FM190600 00000KT 6SM BR SCT080 
     FM190900 00000KT 4SM BR BKN025 
     FM191500 VRB03KT 6SM BR BKN020
       
KGOV 181858Z AUTO 22005KT M M BKN050 BKN060 OVC100 24/13 A2990 RMK AO2 SLPNO T02360129 $
KCMX 181853Z AUTO 31011KT 10SM FEW060 BKN090 17/09 A2993 RMK AO2 SLP136 T01670094
KCMX 181738Z 1818/1918 35006KT P6SM BKN035 
     FM190400 33004KT P6SM SCT060 
     FM190600 33004KT 4SM BR SCT050 
     FM191200 34004KT P6SM SCT080
       
KMGN 181920Z AUTO 21004KT 10SM BKN110 17/10 A2991 RMK AO2 T01800098
KJYM 181920Z AUTO 20005KT 10SM SCT033 BKN065 OVC095 24/15 A2993 RMK AO2 T02390153
KBIV 181853Z AUTO 28007KT 10SM CLR 23/16 A2994 RMK AO2 SLP137 T02330161
KHTL 181853Z AUTO 21005KT 10SM CLR 24/12 A2992 RMK AO2 SLP131 T02440117
KOZW 181917Z AUTO 00000KT 10SM SCT065 25/14 A2993 RMK AO2 T02460143
KY70 181919Z AUTO 25004KT 10SM SCT042 SCT050 SCT060 25/13 A2992 RMK AO2 T02520129
KIMT 181854Z AUTO 28010G23KT 10SM FEW060 FEW080 24/11 A2986 RMK AO2 SLP109 T02440106
KIWD 181856Z AUTO 00000KT 10SM BKN016 OVC070 16/12 A2996 RMK AO2 SLP148 T01610117
KIWD 181738Z 1818/1918 33007KT P6SM VCSH BKN016 
     FM182200 35005KT P6SM SCT035 
     FM190300 00000KT P6SM BKN060 
     FM190800 00000KT 4SM BR BKN006 
     FM191200 09004KT P6SM SKC
       
KJXN 181856Z 26003KT 10SM BKN040 BKN046 OVC065 25/17 A2993 RMK AO2 SLP131 T02500172
KJXN 181740Z 1818/1918 VRB03KT P6SM BKN025 
     FM182100 24005KT P6SM BKN035 
     FM190600 00000KT 5SM BR SCT080 
     FM190900 00000KT 2SM BR BKN025 
     FM191300 00000KT 5SM BR BKN250
       
KAZO 181853Z 00000KT 10SM BKN037 BKN065 26/15 A2993 RMK AO2 SLP130 T02560150
KAZO 181740Z 1818/1918 VRB03KT P6SM BKN035 
     FM182100 24005KT P6SM BKN035 
     FM190600 00000KT 5SM BR SCT080 
     FM190900 00000KT 2SM BR BKN025 
     FM191400 00000KT 5SM BR BKN250
       
KDUH 181916Z AUTO 04003KT 10SM SCT050 24/16 A2993 RMK AO2 T02430162
KLAN 181853Z 00000KT 10SM BKN050 BKN060 24/15 A2993 RMK AO2 SLP133 T02390150
KLAN 181740Z 1818/1918 24005KT P6SM BKN035 
     FM190600 00000KT 6SM BR SCT080 
     FM190900 00000KT 4SM BR BKN025 
     FM191300 00000KT 5SM BR BKN250
       
KD95 181919Z AUTO 00000KT 10SM SCT034 SCT042 OVC060 24/15 A2993 RMK AO2 T02410150
KLDM 181916Z AUTO 25006KT 10SM CLR 17/13 A2994 RMK AO2 T01730134
KMCD 181916Z AUTO 19005KT 10SM SCT100 20/11 A2991 RMK AO2 T01950108
KMBL 181856Z AUTO 26010KT 10SM OVC090 19/16 A2993 RMK AO2 SLP137 T01940156
KMBL 181753Z 1818/1918 21005KT P6SM BKN150 
     FM190300 00000KT P6SM BKN050 
     FM190500 00000KT P6SM BKN080 
     FM190700 00000KT P6SM BKN050 
     FM190900 00000KT 4SM BR BKN015 
     FM191300 00000KT P6SM BKN009 
     FM191700 VRB03KT P6SM BKN024
       
KISQ 181915Z AUTO 17007KT 10SM SCT075 15/13 A2991 RMK AO2 T01540126
KSAW 181847Z 03014KT 10SM -RA OVC021 13/09 A2990
KSAW 181844Z 1819/1918 02010KT P6SM VCSH SCT025 BKN040 
     TEMPO 1819/1820 5SM SHRA SCT015 BKN025 
     FM182200 03007KT P6SM BKN040 
     FM190900 36003KT P6SM BKN006 
     FM191300 01005KT P6SM BKN013 
     FM191500 02009KT P6SM SCT035
       
KRMY 181918Z AUTO 00000KT 10SM SCT039 SCT050 BKN070 25/17 A2992 RMK AO2 T02510165
KTEW 181916Z AUTO 34004KT 10SM SCT040 BKN060 24/16 A2993 RMK AO2 T02430164
KMNM 181856Z AUTO 20008KT 10SM FEW023 BKN050 22/17 A2990 RMK AO2 SLP122 T02170167 $
KIKW 181915Z AUTO 00000KT 10SM SCT120 26/12 A2990 RMK AO2 T02610123
KTTF 181916Z AUTO 00000KT 10SM SCT030 24/18 A2993 RMK AO2 T02410182
KMOP 181916Z AUTO 16004KT 10SM OVC049 26/13 A2991 RMK AO2 T02580134
KMKG 181855Z 28008KT 10SM SCT032 BKN130 BKN200 22/13 A2994 RMK AO2 SLP137 T02170133
KMKG 181740Z 1818/1918 26007KT P6SM BKN035 
     FM190600 00000KT 6SM BR SCT080 
     FM190900 00000KT 4SM BR BKN025 
     FM191200 VRB03KT 5SM BR VCSH OVC009 
     FM191600 33005KT 5SM BR OVC025
       
KERY 181916Z AUTO 18010G17KT 7SM BKN070 OVC085 21/08 A2989 RMK AO2 T02100084
KOSC 181915Z AUTO 14005KT 10SM CLR 24/10 A2991 RMK AO2 T02370104
KRNP 181915Z AUTO 33003KT 10SM SCT039 SCT048 SCT050 25/15 A2992 RMK AO2 T02480149
KPLN 181854Z AUTO VRB05KT 10SM CLR 24/11 A2991 RMK AO2 SLP129 T02440106
KPLN 181753Z 1818/1918 VRB03KT P6SM BKN100 
     FM190400 00000KT P6SM OVC050 
     FM190700 00000KT P6SM BKN024 
     FM190800 VRB03KT P6SM BKN010 
     FM190900 VRB03KT 4SM BR BKN005 
     FM191200 VRB03KT P6SM BKN010 
     FM191600 06005KT P6SM BKN025
       
KPTK 181853Z VRB05KT 10SM FEW035 BKN070 23/16 A2992 RMK AO2 SLP128 T02330156
KPTK 181733Z 1818/1918 VRB03KT P6SM BKN045 
     FM182100 18005KT P6SM SCT050 
     FM190400 VRB03KT P6SM BKN120 
     FM191400 23004KT P6SM BKN050 OVC120
       
KPHN 181917Z AUTO 00000KT 10SM BKN035 BKN065 25/14 A2993 RMK AO2
KPZQ 181916Z AUTO 36005KT 10SM CLR 17/10 A2992 RMK AO2 T01720099
KMBS 181853Z 09005KT 10SM CLR 25/14 A2993 RMK AO2 SLP132 T02500139
KMBS 181733Z 1818/1918 VRB03KT P6SM FEW045 
     FM182000 05005KT P6SM SCT120 
     FM190200 VRB03KT P6SM BKN100 
     FM191000 23004KT P6SM OVC050 
     FM191400 04004KT P6SM BKN025 OVC050
       
KHYX 181919Z AUTO 19005KT 10SM BKN049 25/15 A2992 RMK AO2
KCIU 181856Z AUTO 15008KT 10SM FEW040 SCT050 SCT100 22/14 A2990 RMK AO2 SLP124 T02220139
KANJ 181855Z AUTO 13008KT 10SM BKN055 23/13 A2989 RMK AO2 SLP119 T02280128
KLWA 181916Z AUTO 30005KT 10SM CLR 22/16 A2994 RMK AO2 T02200163
KIRS 181916Z AUTO 00000KT 10SM SCT039 BKN050 SCT065 26/16 A2992 RMK AO2 T02610159
KHAI 181916Z AUTO 00000KT 10SM SCT040 26/16 A2992 RMK AO2 T02550164
KTVC 181853Z VRB04KT 10SM FEW060 BKN100 BKN250 24/09 A2991 RMK AO2 SLP126 T02390089
KTVC 181753Z 1818/1918 VRB03KT P6SM SCT050 BKN070 
     FM190400 00000KT P6SM OVC035 
     FM190600 00000KT P6SM OVC030 
     FM190800 00000KT P6SM BKN017 
     FM190900 00000KT 6SM BR BKN007 
     FM191600 00000KT P6SM BKN011 
     FM191700 00000KT P6SM BKN035
       
KVLL 181915Z AUTO 19004KT 10SM SCT041 SCT048 BKN055 25/14 A2994 RMK AO2 T02480135
KY31 181918Z AUTO 14004KT 10SM SCT048 25/13 A2990 RMK AO2 T02460133